LFRS/NTE METAR and TAF weather

Enter ICAO airport designator
Station Type Date Time Source
LFRS METAR 2022/11/30 10:30 UTC NOAA

LFRS 301030Z AUTO 07007KT 040V100 9999 BKN008 BKN012 OVC026 07/06 Q1022 BECMG BKN025


Station Type Date Time Source
LFRS Decoded METAR 2022/11/30 10:30 UTC NOAA

Nantes, France (LFRS) 47-10N 001-36W 27M
Nov 30, 2022 - 05:30 AM EST / 2022.11.30 1030 UTC
Wind: from the ENE (070 degrees) at 8 MPH (7 KT) (direction variable):0
Visibility: greater than 7 mile(s):0
Sky conditions: overcast
Temperature: 44 F (7 C)
Dew Point: 42 F (6 C)
Relative Humidity: 93%
Pressure (altimeter): 30.18 in. Hg (1022 hPa)
ob: LFRS 301030Z AUTO 07007KT 040V100 9999 BKN008 BKN012 OVC026 07/06 Q1022 BECMG BKN025
cycle: 10

Station Type Date Time Source
LFRS TAF 2022/11/30 06:42 UTC NOAA

TAF LFRS 300500Z 3006/0112 07006KT 0800 FG VV///
TEMPO 3006/3009 0300 FG
BECMG 3009/3011 9999 NSW BKN025
TEMPO 3022/0102 BKN009
BECMG 0108/0112 BKN007

Example: see airport list